Flight Track Log - Related Links

Times and Time Zones

All times are in EST time to prevent confusion due to time zone crossing. See the AFL150 flight status page for this flight to view local times or setup timezone preferences in your user account.

Time Position Orientation Groundspeed Altitude Reporting Facility
EST Latitude Longitude Course Direction KTS MPH feet Rate Location/Type
Sun 05:05:00 AM 56.0548 37.2105 314° West  Level FlightAware Approximate
Sun 05:06:00 AM 56.1333 37.0645 314° West  Level FlightAware Approximate
Sun 05:07:00 AM 56.2115 36.9179 314° West  Level FlightAware Approximate
Sun 05:08:00 AM 56.2896 36.7708 314° West  Level FlightAware Approximate
Sun 05:09:00 AM 56.3675 36.6231 314° West  Level FlightAware Approximate
Sun 05:10:00 AM 56.4452 36.4747 313° West  Level FlightAware Approximate
Sun 05:11:00 AM 56.5227 36.3257 313° West  Level FlightAware Approximate
Sun 05:12:00 AM 56.6001 36.1761 313° West  Level FlightAware Approximate
Sun 05:13:00 AM 56.6773 36.0260 313° West  Level FlightAware Approximate
Sun 05:14:00 AM 56.7543 35.8751 313° West  Level FlightAware Approximate
Sun 05:15:00 AM 56.8311 35.7237 313° West  Level FlightAware Approximate
Sun 05:16:00 AM 56.9078 35.5717 313° West  Level FlightAware Approximate
Sun 05:17:00 AM 56.9842 35.4190 313° West  Level FlightAware Approximate
Sun 05:18:00 AM 57.0605 35.2657 312° West  Level FlightAware Approximate
Sun 05:19:00 AM 57.1366 35.1118 312° West  Level FlightAware Approximate
Sun 05:20:00 AM 57.2124 34.9572 312° West  Level FlightAware Approximate
Sun 05:21:00 AM 57.2882 34.8020 312° West  Level FlightAware Approximate
Sun 05:22:00 AM 57.3637 34.6462 312° West  Level FlightAware Approximate
Sun 05:23:00 AM 57.4390 34.4897 312° West  Level FlightAware Approximate
Sun 05:24:00 AM 57.5128 34.3233 309° West  Level FlightAware Approximate
Sun 05:25:00 AM 57.5840 34.1596 309° West  Level FlightAware Approximate
Sun 05:26:00 AM 57.6550 33.9954 309° West  Level FlightAware Approximate
Sun 05:27:00 AM 57.7258 33.8305 309° West  Level FlightAware Approximate
Sun 05:28:00 AM 57.7963 33.6649 309° West  Level FlightAware Approximate
Sun 05:29:00 AM 57.8667 33.4987 309° West  Level FlightAware Approximate
Sun 05:30:00 AM 57.9368 33.3318 308° West  Level FlightAware Approximate
Sun 05:31:00 AM 58.0067 33.1643 308° West  Level FlightAware Approximate
Sun 05:32:00 AM 58.0764 32.9962 308° West  Level FlightAware Approximate
Sun 05:33:00 AM 58.1459 32.8274 308° West  Level FlightAware Approximate
Sun 05:34:00 AM 58.2151 32.6579 308° West  Level FlightAware Approximate
Sun 05:35:00 AM 58.2841 32.4877 308° West  Level FlightAware Approximate
Sun 05:36:00 AM 58.3529 32.3169 308° West  Level FlightAware Approximate
Sun 05:37:00 AM 58.4215 32.1455 307° West  Level FlightAware Approximate
Sun 05:38:00 AM 58.4898 31.9733 307° West  Level FlightAware Approximate
Sun 05:39:00 AM 58.5579 31.8005 307° West  Level FlightAware Approximate
Sun 05:40:00 AM 58.6258 31.6270 307° West  Level FlightAware Approximate
Sun 05:41:00 AM 58.6934 31.4529 307° West  Level FlightAware Approximate
Sun 05:42:00 AM 58.7608 31.2780 307° West  Level FlightAware Approximate
Sun 05:43:00 AM 58.8280 31.1025 307° West  Level FlightAware Approximate
Sun 05:44:00 AM 58.8949 30.9263 306° West  Level FlightAware Approximate
Sun 05:45:00 AM 58.9616 30.7495 306° West  Level FlightAware Approximate
Sun 05:46:00 AM 59.0280 30.5719 306° West  Level FlightAware Approximate
Sun 05:47:00 AM 59.0942 30.3937 306° West  Level FlightAware Approximate
Sun 05:48:00 AM 59.1602 30.2148 306° West  Level FlightAware Approximate
Sun 05:49:00 AM 59.2259 30.0351 306° West  Level FlightAware Approximate
Sun 05:50:00 AM 59.2913 29.8548 305° West  Level FlightAware Approximate
Sun 05:51:00 AM 59.3565 29.6738 305° West  Level FlightAware Approximate
Sun 05:52:00 AM 59.4215 29.4921 305° West  Level FlightAware Approximate
Sun 05:53:00 AM 59.4862 29.3097 305° West  Level FlightAware Approximate
Sun 05:54:00 AM 59.5506 29.1266 305° West  Level FlightAware Approximate
Sun 05:55:00 AM 59.6148 28.9429 305° West  Level FlightAware Approximate
Sun 05:56:00 AM 59.6787 28.7584 305° West  Level FlightAware Approximate
Sun 05:57:00 AM 59.7424 28.5732 304° West  Level FlightAware Approximate
Sun 05:58:00 AM 59.8058 28.3873 304° West  Level FlightAware Approximate
Sun 05:59:00 AM 59.8689 28.2006 304° West  Level FlightAware Approximate
Sun 06:00:00 AM 59.9318 28.0133 304° West  Level FlightAware Approximate
Sun 06:01:00 AM 59.9944 27.8253 304° West  Level FlightAware Approximate
Sun 06:02:00 AM 60.0568 27.6366 304° West  Level FlightAware Approximate
Sun 06:03:00 AM 60.1189 27.4471 303° West  Level FlightAware Approximate
Sun 06:04:00 AM 60.1807 27.2569 303° West  Level FlightAware Approximate
Sun 06:05:00 AM 60.2422 27.0660 303° West  Level FlightAware Approximate
Sun 06:06:00 AM 60.3035 26.8744 303° West  Level FlightAware Approximate
Sun 06:07:00 AM 60.3644 26.6821 303° West  Level FlightAware Approximate
Sun 06:08:00 AM 60.4251 26.4891 303° West  Level FlightAware Approximate
Sun 06:09:00 AM 60.4855 26.2953 302° West  Level FlightAware Approximate
Sun 06:10:00 AM 60.5457 26.1008 302° West  Level FlightAware Approximate
Sun 06:11:00 AM 60.6055 25.9056 302° West  Level FlightAware Approximate
Sun 06:12:00 AM 60.6651 25.7097 302° West  Level FlightAware Approximate
Sun 06:13:00 AM 60.7244 25.5131 302° West  Level FlightAware Approximate
Sun 06:14:00 AM 60.7834 25.3157 302° West  Level FlightAware Approximate
Sun 06:15:00 AM 60.8421 25.1176 301° West  Level FlightAware Approximate
Sun 06:16:00 AM 60.9005 24.9187 301° West  Level FlightAware Approximate
Sun 06:17:00 AM 60.9586 24.7192 301° West  Level FlightAware Approximate
Sun 06:18:00 AM 61.0164 24.5189 301° West  Level FlightAware Approximate
Sun 06:19:00 AM 61.0739 24.3179 301° West  Level FlightAware Approximate
Sun 06:20:00 AM 61.1312 24.1161 300° West  Level FlightAware Approximate
Sun 06:21:00 AM 61.1881 23.9136 300° West  Level FlightAware Approximate
Sun 06:22:00 AM 61.2447 23.7104 300° West  Level FlightAware Approximate
Sun 06:23:00 AM 61.3010 23.5065 300° West  Level FlightAware Approximate
Sun 06:24:00 AM 61.3570 23.3018 300° West  Level FlightAware Approximate
Sun 06:25:00 AM 61.4127 23.0964 300° West  Level FlightAware Approximate
Sun 06:26:00 AM 61.4681 22.8903 299° West  Level FlightAware Approximate
Sun 06:27:00 AM 61.5232 22.6834 299° West  Level FlightAware Approximate
Sun 06:28:00 AM 61.5779 22.4758 299° West  Level FlightAware Approximate
Sun 06:29:00 AM 61.6324 22.2675 299° West  Level FlightAware Approximate
Sun 06:29:41 AM 61.4034 22.5311 299° West 419 482 34,000  Level FlightAware ADS-B
Sun 06:30:00 AM 61.6865 22.0584 299° West  Level FlightAware Approximate
Sun 06:31:00 AM 61.7403 21.8486 299° West  Level FlightAware Approximate
Sun 06:32:00 AM 61.5088 22.0294 294° West  Level Estimated
Sun 06:33:00 AM 61.5538 21.8118 294° West  Level Estimated
Sun 06:34:00 AM 61.5984 21.5936 293° West  Level Estimated
Sun 06:35:00 AM 61.6426 21.3747 293° West  Level Estimated
Sun 06:36:00 AM 61.6865 21.1552 293° West  Level Estimated
Sun 06:37:00 AM 61.7301 20.9351 293° West  Level Estimated
Sun 06:38:00 AM 61.7733 20.7144 293° West  Level Estimated
Sun 06:39:00 AM 61.8161 20.4931 292° West  Level Estimated
Sun 06:40:00 AM 61.8586 20.2711 292° West  Level Estimated
Sun 06:41:00 AM 61.9007 20.0485 292° West  Level Estimated
Sun 06:42:00 AM 61.9425 19.8253 292° West  Level Estimated
Sun 06:43:00 AM 61.9839 19.6016 292° West  Level Estimated
Sun 06:44:00 AM 62.0249 19.3772 291° West  Level Estimated
Sun 06:45:00 AM 62.0656 19.1522 291° West  Level Estimated
Sun 06:46:00 AM 62.1059 18.9266 291° West  Level Estimated
Sun 06:47:00 AM 62.1458 18.7004 291° West  Level Estimated
Sun 06:48:00 AM 62.1853 18.4736 291° West  Level Estimated
Sun 06:49:00 AM 62.2245 18.2462 290° West  Level Estimated
Sun 06:50:00 AM 62.2634 18.0182 290° West  Level Estimated
Sun 06:51:00 AM 62.3018 17.7896 290° West  Level Estimated
Sun 06:52:00 AM 62.3399 17.5605 290° West  Level Estimated
Sun 06:53:00 AM 62.3776 17.3308 290° West  Level Estimated
Sun 06:54:00 AM 62.4149 17.1005 289° West  Level Estimated
Sun 06:55:00 AM 62.4518 16.8696 289° West  Level Estimated
Sun 06:56:00 AM 62.4884 16.6382 289° West  Level Estimated
Sun 06:57:00 AM 62.5245 16.4062 289° West  Level Estimated
Sun 06:58:00 AM 62.5603 16.1736 289° West  Level Estimated
Sun 06:59:00 AM 62.5957 15.9405 288° West  Level Estimated
Sun 07:00:00 AM 62.6307 15.7068 288° West  Level Estimated
Sun 07:01:00 AM 62.6653 15.4726 288° West  Level Estimated
Sun 07:02:00 AM 62.6995 15.2378 288° West  Level Estimated
Sun 07:03:00 AM 62.7334 15.0025 288° West  Level Estimated
Sun 07:04:00 AM 62.7668 14.7667 287° West  Level Estimated
Sun 07:05:00 AM 62.7998 14.5303 287° West  Level Estimated
Sun 07:06:00 AM 62.8325 14.2934 287° West  Level Estimated
Sun 07:07:00 AM 62.8647 14.0560 287° West  Level Estimated
Sun 07:08:00 AM 62.8966 13.8180 286° West  Level Estimated
Sun 07:09:00 AM 62.9280 13.5795 286° West  Level Estimated
Sun 07:10:00 AM 62.9590 13.3406 286° West  Level Estimated
Sun 07:11:00 AM 62.9897 13.1011 286° West  Level Estimated
Sun 07:12:00 AM 63.0199 12.8611 286° West  Level Estimated
Sun 07:13:00 AM 63.0497 12.6207 285° West  Level Estimated
Sun 07:14:00 AM 63.0791 12.3797 285° West  Level Estimated
Sun 07:15:00 AM 63.1081 12.1383 285° West  Level Estimated
Sun 07:16:00 AM 63.1367 11.8963 285° West  Level Estimated
Sun 07:17:00 AM 63.1649 11.6539 285° West  Level Estimated
Sun 07:18:00 AM 63.1927 11.4111 284° West  Level Estimated
Sun 07:19:00 AM 63.2200 11.1678 284° West  Level Estimated
Sun 07:20:00 AM 63.2469 10.9240 284° West  Level Estimated
Sun 07:21:00 AM 63.2735 10.6798 284° West  Level Estimated
Sun 07:22:00 AM 63.2996 10.4351 283° West  Level Estimated
Sun 07:23:00 AM 63.3252 10.1899 283° West  Level Estimated
Sun 07:24:00 AM 63.3505 9.9444 283° West  Level Estimated
Sun 07:25:00 AM 63.3753 9.6984 283° West  Level Estimated
Sun 07:26:00 AM 63.3997 9.4520 283° West  Level Estimated
Sun 07:27:00 AM 63.4237 9.2052 282° West  Level Estimated
Sun 07:28:00 AM 63.4473 8.9580 282° West  Level Estimated
Sun 07:29:00 AM 63.4704 8.7103 282° West  Level Estimated
Sun 07:30:00 AM 63.4931 8.4623 282° West  Level Estimated
Sun 07:31:00 AM 63.5154 8.2139 281° West  Level Estimated
Sun 07:32:00 AM 63.5372 7.9651 281° West  Level Estimated
Sun 07:33:00 AM 63.5586 7.7159 281° West  Level Estimated
Sun 07:34:00 AM 63.5796 7.4663 281° West  Level Estimated
Sun 07:35:00 AM 63.6001 7.2164 281° West  Level Estimated
Sun 07:36:00 AM 63.6203 6.9661 280° West  Level Estimated
Sun 07:37:00 AM 63.6399 6.7155 280° West  Level Estimated
Sun 07:38:00 AM 63.6592 6.4645 280° West  Level Estimated
Sun 07:39:00 AM 63.6780 6.2132 280° West  Level Estimated
Sun 07:40:00 AM 63.6963 5.9616 279° West  Level Estimated
Sun 07:41:00 AM 63.7142 5.7096 279° West  Level Estimated
Sun 07:42:00 AM 63.7317 5.4573 279° West  Level Estimated
Sun 07:43:00 AM 63.7488 5.2048 279° West  Level Estimated
Sun 07:44:00 AM 63.7654 4.9519 279° West  Level Estimated
Sun 07:45:00 AM 63.7815 4.6987 278° West  Level Estimated
Sun 07:46:00 AM 63.7972 4.4453 278° West  Level Estimated
Sun 07:47:00 AM 63.8125 4.1915 278° West  Level Estimated
Sun 07:48:00 AM 63.8273 3.9375 278° West  Level Estimated
Sun 07:49:00 AM 63.8417 3.6832 277° West  Level Estimated
Sun 07:50:00 AM 63.8556 3.4287 277° West  Level Estimated
Sun 07:51:00 AM 63.8691 3.1739 277° West  Level Estimated
Sun 07:52:00 AM 63.8821 2.9189 277° West  Level Estimated
Sun 07:53:00 AM 63.8947 2.6636 277° West  Level Estimated
Sun 07:54:00 AM 63.9068 2.4082 276° West  Level Estimated
Sun 07:55:00 AM 63.9185 2.1525 276° West  Level Estimated
Sun 07:56:00 AM 63.9297 1.8966 276° West  Level Estimated
Sun 07:57:00 AM 63.9405 1.6405 276° West  Level Estimated
Sun 07:58:00 AM 63.9508 1.3842 275° West  Level Estimated
Sun 07:59:00 AM 63.9607 1.1277 275° West  Level Estimated
Sun 08:00:00 AM 63.9701 0.8710 275° West  Level Estimated
Sun 08:01:00 AM 63.9791 0.6142 275° West  Level Estimated
Sun 08:02:00 AM 63.9876 0.3572 274° West  Level Estimated
Sun 08:03:00 AM 63.9957 0.1001 274° West  Level Estimated
Sun 08:04:00 AM 64.0033 -0.1572 274° West  Level Estimated
Sun 08:05:00 AM 64.0104 -0.4147 274° West  Level Estimated
Sun 08:06:00 AM 64.0171 -0.6722 274° West  Level Estimated
Sun 08:07:00 AM 64.0234 -0.9299 273° West  Level Estimated
Sun 08:08:00 AM 64.0291 -1.1877 273° West  Level Estimated
Sun 08:09:00 AM 64.0344 -1.4455 273° West  Level Estimated
Sun 08:10:00 AM 64.0393 -1.7035 273° West  Level Estimated
Sun 08:11:00 AM 64.0437 -1.9616 272° West  Level Estimated
Sun 08:12:00 AM 64.0477 -2.2197 272° West  Level Estimated
Sun 08:13:00 AM 64.0512 -2.4779 272° West  Level Estimated
Sun 08:14:00 AM 64.0542 -2.7362 272° West  Level Estimated
Sun 08:15:00 AM 64.0568 -2.9945 271° West  Level Estimated
Sun 08:16:00 AM 64.0589 -3.2529 271° West  Level Estimated
Sun 08:17:00 AM 64.0605 -3.5113 271° West  Level Estimated
Sun 08:18:00 AM 64.0618 -3.7697 271° West  Level Estimated
Sun 08:19:00 AM 64.0625 -4.0282 270° West  Level Estimated
Sun 08:20:00 AM 64.0628 -4.2866 270° West  Level Estimated
Sun 08:21:00 AM 64.0626 -4.5451 270° West  Level Estimated
Sun 08:22:00 AM 64.0620 -4.8035 270° West  Level Estimated
Sun 08:23:00 AM 64.0609 -5.0619 270° West  Level Estimated
Sun 08:24:00 AM 64.0593 -5.3203 269° West  Level Estimated
Sun 08:25:00 AM 64.0573 -5.5787 269° West  Level Estimated
Sun 08:26:00 AM 64.0548 -5.8370 269° West  Level Estimated
Sun 08:27:00 AM 64.0519 -6.0953 269° West  Level Estimated
Sun 08:28:00 AM 64.0486 -6.3535 268° West  Level Estimated
Sun 08:29:00 AM 64.0447 -6.6117 268° West  Level Estimated
Sun 08:30:00 AM 64.0404 -6.8698 268° West  Level Estimated
Sun 08:31:00 AM 64.0357 -7.1278 268° West  Level Estimated
Sun 08:32:00 AM 64.0304 -7.3857 267° West  Level Estimated
Sun 08:33:00 AM 64.0248 -7.6435 267° West  Level Estimated
Sun 08:34:00 AM 64.0186 -7.9012 267° West  Level Estimated
Sun 08:35:00 AM 64.0121 -8.1588 267° West  Level Estimated
Sun 08:36:00 AM 64.0050 -8.4162 267° West  Level Estimated
Sun 08:37:00 AM 63.9975 -8.6735 266° West  Level Estimated
Sun 08:38:00 AM 63.9896 -8.9307 266° West  Level Estimated
Sun 08:39:00 AM 63.9812 -9.1877 266° West  Level Estimated
Sun 08:40:00 AM 63.9723 -9.4446 266° West  Level Estimated
Sun 08:41:00 AM 63.9630 -9.7013 265° West  Level Estimated
Sun 08:42:00 AM 63.9532 -9.9578 265° West  Level Estimated
Sun 08:43:00 AM 63.9430 -10.2142 265° West  Level Estimated
Sun 08:44:00 AM 63.9324 -10.4703 265° West  Level Estimated
Sun 08:45:00 AM 63.9212 -10.7263 264° West  Level Estimated
Sun 08:46:00 AM 63.9097 -10.9820 264° West  Level Estimated
Sun 08:47:00 AM 63.8976 -11.2376 264° West  Level Estimated
Sun 08:48:00 AM 63.8852 -11.4929 264° West  Level Estimated
Sun 08:49:00 AM 63.8722 -11.7479 264° West  Level Estimated
Sun 08:50:00 AM 63.8589 -12.0028 263° West  Level Estimated
Sun 08:51:00 AM 63.8451 -12.2574 263° West  Level Estimated
Sun 08:52:00 AM 63.8308 -12.5117 263° West  Level Estimated
Sun 08:53:00 AM 63.8161 -12.7658 263° West  Level Estimated
Sun 08:54:00 AM 63.8009 -13.0196 262° West  Level Estimated
Sun 08:55:00 AM 63.7853 -13.2731 262° West  Level Estimated
Sun 08:56:00 AM 63.7693 -13.5264 262° West  Level Estimated
Sun 08:57:00 AM 63.7528 -13.7793 262° West  Level Estimated
Sun 08:58:00 AM 63.7359 -14.0320 261° West  Level Estimated
Sun 08:59:00 AM 63.7185 -14.2844 261° West  Level Estimated
Sun 09:00:00 AM 63.7007 -14.5364 261° West  Level Estimated
Sun 09:01:00 AM 63.6824 -14.7881 261° West  Level Estimated
Sun 09:02:00 AM 63.6637 -15.0395 261° West  Level Estimated
Sun 09:03:00 AM 63.6446 -15.2905 260° West  Level Estimated
Sun 09:04:00 AM 63.6250 -15.5413 260° West  Level Estimated
Sun 09:05:00 AM 63.6050 -15.7916 260° West  Level Estimated
Sun 09:06:00 AM 63.5846 -16.0416 260° West  Level Estimated
Sun 09:07:00 AM 63.5637 -16.2913 259° West  Level Estimated
Sun 09:08:00 AM 63.5424 -16.5405 259° West  Level Estimated
Sun 09:09:00 AM 63.5206 -16.7894 259° West  Level Estimated
Sun 09:10:00 AM 63.4985 -17.0379 259° West  Level Estimated
Sun 09:11:00 AM 63.4759 -17.2861 259° West  Level Estimated
Sun 09:12:00 AM 63.4529 -17.5338 258° West  Level Estimated
Sun 09:13:00 AM 63.4294 -17.7811 258° West  Level Estimated
Sun 09:14:00 AM 63.4055 -18.0280 258° West  Level Estimated
Sun 09:15:00 AM 63.3812 -18.2745 258° West  Level Estimated
Sun 09:16:00 AM 63.3565 -18.5206 257° West  Level Estimated
Sun 09:17:00 AM 63.3313 -18.7663 257° West  Level Estimated
Sun 09:18:00 AM 63.3057 -19.0115 257° West  Level Estimated
Sun 09:19:00 AM 63.2797 -19.2563 257° West  Level Estimated
Sun 09:20:00 AM 63.2533 -19.5007 257° West  Level Estimated
Sun 09:21:00 AM 63.2265 -19.7445 256° West  Level Estimated
Sun 09:22:00 AM 63.1992 -19.9880 256° West  Level Estimated
Sun 09:23:00 AM 63.1716 -20.2309 256° West  Level Estimated
Sun 09:24:00 AM 63.1435 -20.4735 256° West  Level Estimated
Sun 09:25:00 AM 63.1150 -20.7155 256° West  Level Estimated
Sun 09:26:00 AM 63.0861 -20.9571 255° West  Level Estimated
Sun 09:27:00 AM 63.0568 -21.1981 255° West  Level Estimated
Sun 09:28:00 AM 63.0271 -21.4387 255° West  Level Estimated
Sun 09:29:00 AM 62.9969 -21.6788 255° West  Level Estimated
Sun 09:30:00 AM 62.9664 -21.9184 254° West  Level Estimated
Sun 09:31:00 AM 62.9355 -22.1575 254° West  Level Estimated
Sun 09:32:00 AM 62.9041 -22.3961 254° West  Level Estimated
Sun 09:33:00 AM 62.8724 -22.6341 254° West  Level Estimated
Sun 09:34:00 AM 62.8402 -22.8717 254° West  Level Estimated
Sun 09:35:00 AM 62.8077 -23.1087 253° West  Level Estimated
Sun 09:36:00 AM 62.7747 -23.3452 253° West  Level Estimated
Sun 09:37:00 AM 62.7414 -23.5812 253° West  Level Estimated
Sun 09:38:00 AM 62.7076 -23.8166 253° West  Level Estimated
Sun 09:39:00 AM 62.6735 -24.0515 253° West  Level Estimated
Sun 09:40:00 AM 62.6390 -24.2859 252° West  Level Estimated
Sun 09:41:00 AM 62.6041 -24.5197 252° West  Level Estimated
Sun 09:42:00 AM 62.5688 -24.7529 252° West  Level Estimated
Sun 09:43:00 AM 62.5331 -24.9856 252° West  Level Estimated
Sun 09:44:00 AM 62.4970 -25.2178 251° West  Level Estimated
Sun 09:45:00 AM 62.4606 -25.4493 251° West  Level Estimated
Sun 09:46:00 AM 62.4237 -25.6803 251° West  Level Estimated
Sun 09:47:00 AM 62.3865 -25.9108 251° West  Level Estimated
Sun 09:48:00 AM 62.3489 -26.1406 251° West  Level Estimated
Sun 09:49:00 AM 62.3109 -26.3699 250° West  Level Estimated
Sun 09:50:00 AM 62.2726 -26.5986 250° West  Level Estimated
Sun 09:51:00 AM 62.2338 -26.8267 250° West  Level Estimated
Sun 09:52:00 AM 62.1947 -27.0543 250° West  Level Estimated
Sun 09:53:00 AM 62.1553 -27.2812 250° West  Level Estimated
Sun 09:54:00 AM 62.1154 -27.5075 249° West  Level Estimated
Sun 09:55:00 AM 62.0752 -27.7333 249° West  Level Estimated
Sun 09:56:00 AM 62.0346 -27.9585 249° West  Level Estimated
Sun 09:57:00 AM 61.9936 -28.1830 249° West  Level Estimated
Sun 09:58:00 AM 61.9523 -28.4069 249° West  Level Estimated
Sun 09:59:00 AM 61.9107 -28.6303 248° West  Level Estimated
Sun 10:00:00 AM 61.8686 -28.8530 248° West  Level Estimated
Sun 10:01:00 AM 61.8262 -29.0751 248° West  Level Estimated
Sun 10:02:00 AM 61.7835 -29.2966 248° West  Level Estimated
Sun 10:03:00 AM 61.7404 -29.5175 248° West  Level Estimated
Sun 10:04:00 AM 61.6969 -29.7377 247° West  Level Estimated
Sun 10:05:00 AM 61.6531 -29.9573 247° West  Level Estimated
Sun 10:06:00 AM 61.6090 -30.1763 247° West  Level Estimated
Sun 10:07:00 AM 61.5644 -30.3947 247° West  Level Estimated
Sun 10:08:00 AM 61.5196 -30.6125 247° West  Level Estimated
Sun 10:09:00 AM 61.4744 -30.8296 247° West  Level Estimated
Sun 10:10:00 AM 61.4288 -31.0461 246° West  Level Estimated
Sun 10:11:00 AM 61.3829 -31.2619 246° West  Level Estimated
Sun 10:12:00 AM 61.3367 -31.4772 246° West  Level Estimated
Sun 10:13:00 AM 61.2901 -31.6917 246° West  Level Estimated
Sun 10:14:00 AM 61.2432 -31.9057 246° West  Level Estimated
Sun 10:15:00 AM 61.1960 -32.1190 245° Southwest  Level Estimated
Sun 10:16:00 AM 61.1484 -32.3317 245° Southwest  Level Estimated
Sun 10:17:00 AM 61.1005 -32.5437 245° Southwest  Level Estimated
Sun 10:18:00 AM 61.0522 -32.7551 245° Southwest  Level Estimated
Sun 10:19:00 AM 61.0037 -32.9658 245° Southwest  Level Estimated
Sun 10:20:00 AM 60.9548 -33.1759 244° Southwest  Level Estimated
Sun 10:21:00 AM 60.9055 -33.3853 244° Southwest  Level Estimated
Sun 10:22:00 AM 60.8560 -33.5941 244° Southwest  Level Estimated
Sun 10:23:00 AM 60.8061 -33.8023 244° Southwest  Level Estimated
Sun 10:24:00 AM 60.7559 -34.0098 244° Southwest  Level Estimated
Sun 10:25:00 AM 60.7054 -34.2166 244° Southwest  Level Estimated
Sun 10:26:00 AM 60.6546 -34.4228 243° Southwest  Level Estimated
Sun 10:27:00 AM 60.6034 -34.6284 243° Southwest  Level Estimated
Sun 10:28:00 AM 60.5520 -34.8333 243° Southwest  Level Estimated
Sun 10:29:00 AM 60.5002 -35.0375 243° Southwest  Level Estimated
Sun 10:30:00 AM 60.4481 -35.2411 243° Southwest  Level Estimated
Sun 10:31:00 AM 60.3957 -35.4440 242° Southwest  Level Estimated
Sun 10:32:00 AM 60.3430 -35.6463 242° Southwest  Level Estimated
Sun 10:33:00 AM 60.2900 -35.8479 242° Southwest  Level Estimated
Sun 10:34:00 AM 60.2367 -36.0489 242° Southwest  Level Estimated
Sun 10:35:00 AM 60.1831 -36.2492 242° Southwest  Level Estimated
Sun 10:36:00 AM 60.1291 -36.4488 242° Southwest  Level Estimated
Sun 10:37:00 AM 60.0749 -36.6479 241° Southwest  Level Estimated
Sun 10:38:00 AM 60.0204 -36.8462 241° Southwest  Level Estimated
Sun 10:39:00 AM 59.9656 -37.0439 241° Southwest  Level Estimated
Sun 10:40:00 AM 59.9105 -37.2409 241° Southwest  Level Estimated
Sun 10:41:00 AM 59.8551 -37.4373 241° Southwest  Level Estimated
Sun 10:42:00 AM 59.7994 -37.6330 241° Southwest  Level Estimated
Sun 10:43:00 AM 59.7434 -37.8281 240° Southwest  Level Estimated
Sun 10:44:00 AM 59.6871 -38.0225 240° Southwest  Level Estimated
Sun 10:45:00 AM 59.6306 -38.2163 240° Southwest  Level Estimated
Sun 10:46:00 AM 59.5737 -38.4094 240° Southwest  Level Estimated
Sun 10:47:00 AM 59.5166 -38.6019 240° Southwest  Level Estimated
Sun 10:48:00 AM 59.4592 -38.7937 240° Southwest  Level Estimated
Sun 10:49:00 AM 59.4016 -38.9848 239° Southwest  Level Estimated
Sun 10:50:00 AM 59.3436 -39.1753 239° Southwest  Level Estimated
Sun 10:51:00 AM 59.2854 -39.3652 239° Southwest  Level Estimated
Sun 10:52:00 AM 59.2268 -39.5544 239° Southwest  Level Estimated
Sun 10:53:00 AM 59.1680 -39.7429 239° Southwest  Level Estimated
Sun 10:54:00 AM 59.1090 -39.9309 239° Southwest  Level Estimated
Sun 10:55:00 AM 59.0496 -40.1181 238° Southwest  Level Estimated
Sun 10:56:00 AM 58.9901 -40.3047 238° Southwest  Level Estimated
Sun 10:57:00 AM 58.9302 -40.4907 238° Southwest  Level Estimated
Sun 10:58:00 AM 58.8700 -40.6760 238° Southwest  Level Estimated
Sun 10:59:00 AM 58.8097 -40.8607 238° Southwest  Level Estimated
Sun 11:00:00 AM 58.7490 -41.0447 238° Southwest  Level Estimated
Sun 11:01:00 AM 58.6881 -41.2281 237° Southwest  Level Estimated
Sun 11:02:00 AM 58.6269 -41.4108 237° Southwest  Level Estimated
Sun 11:03:00 AM 58.5654 -41.5929 237° Southwest  Level Estimated
Sun 11:04:00 AM 58.5037 -41.7744 237° Southwest  Level Estimated
Sun 11:05:00 AM 58.4418 -41.9552 237° Southwest  Level Estimated
Sun 11:06:00 AM 58.3796 -42.1354 237° Southwest  Level Estimated
Sun 11:07:00 AM 58.3171 -42.3150 237° Southwest  Level Estimated
Sun 11:08:00 AM 58.2544 -42.4939 236° Southwest  Level Estimated
Sun 11:09:00 AM 58.1915 -42.6722 236° Southwest  Level Estimated
Sun 11:10:00 AM 58.1283 -42.8499 236° Southwest  Level Estimated
Sun 11:11:00 AM 58.0648 -43.0269 236° Southwest  Level Estimated
Sun 11:12:00 AM 58.0011 -43.2033 236° Southwest  Level Estimated
Sun 11:13:00 AM 57.9372 -43.3791 236° Southwest  Level Estimated
Sun 11:14:00 AM 57.8730 -43.5542 235° Southwest  Level Estimated
Sun 11:15:00 AM 57.8086 -43.7287 235° Southwest  Level Estimated
Sun 11:16:00 AM 57.7439 -43.9026 235° Southwest  Level Estimated
Sun 11:17:00 AM 57.6790 -44.0759 235° Southwest  Level Estimated
Sun 11:18:00 AM 57.6139 -44.2486 235° Southwest  Level Estimated
Sun 11:19:00 AM 57.5485 -44.4206 235° Southwest  Level Estimated
Sun 11:20:00 AM 57.4829 -44.5920 235° Southwest  Level Estimated
Sun 11:21:00 AM 57.4171 -44.7628 234° Southwest  Level Estimated
Sun 11:22:00 AM 57.3510 -44.9330 234° Southwest  Level Estimated
Sun 11:23:00 AM 57.2847 -45.1026 234° Southwest  Level Estimated
Sun 11:24:00 AM 57.2160 -45.2770 234° Southwest  Level Estimated
Sun 11:25:00 AM 57.1470 -45.4510 234° Southwest  Level Estimated
Sun 11:26:00 AM 57.0778 -45.6243 234° Southwest  Level Estimated
Sun 11:27:00 AM 57.0083 -45.7970 234° Southwest  Level Estimated
Sun 11:28:00 AM 56.9386 -45.9690 233° Southwest  Level Estimated
Sun 11:29:00 AM 56.8687 -46.1403 233° Southwest  Level Estimated
Sun 11:30:00 AM 56.7985 -46.3111 233° Southwest  Level Estimated
Sun 11:31:00 AM 56.7281 -46.4812 233° Southwest  Level Estimated
Sun 11:32:00 AM 56.6575 -46.6506 233° Southwest  Level Estimated
Sun 11:33:00 AM 56.5866 -46.8194 233° Southwest  Level Estimated
Sun 11:34:00 AM 56.5155 -46.9876 233° Southwest  Level Estimated
Sun 11:34:46 AM 59.1500 -57.4833 232° Southwest 440 506 36,000  Level Gander Center
Sun 11:35:00 AM 56.4442 -47.1552 232° Southwest  Level Estimated
Sun 11:35:46 AM 59.0500 -57.6500 221° Southwest 440 506 36,000  Level Gander Center
Sun 11:36:00 AM 56.3727 -47.3221 232° Southwest  Level Estimated
Sun 11:36:46 AM 58.9833 -57.8500 237° Southwest 440 506 36,000  Level Gander Center
Sun 11:37:00 AM 56.3009 -47.4884 232° Southwest  Level Estimated
Sun 11:37:46 AM 58.9000 -58.0333 229° Southwest 440 506 36,000  Level Gander Center
Sun 11:38:00 AM 56.2289 -47.6541 232° Southwest  Level Estimated
Sun 11:38:46 AM 58.8167 -58.2333 231° Southwest 440 506 36,000  Level Gander Center
Sun 11:39:00 AM 56.1567 -47.8191 232° Southwest  Level Estimated
Sun 11:39:46 AM 58.7500 -58.3667 226° Southwest 440 506 36,000  Level Gander Center
Sun 11:40:00 AM 56.0843 -47.9836 232° Southwest  Level Estimated
Sun 11:40:46 AM 58.6667 -58.5333 226° Southwest 450 518 36,000  Level Gander Center
Sun 11:41:46 AM 58.6000 -58.7167 235° Southwest 450 518 36,000  Level Gander Center
Sun 11:42:46 AM 58.5167 -58.8833 226° Southwest 450 518 36,000  Level Gander Center
Sun 11:43:46 AM 58.4333 -59.0500 226° Southwest 440 506 36,000  Level Gander Center
Sun 11:44:46 AM 58.3500 -59.2500 232° Southwest 440 506 36,000  Level Gander Center
Sun 11:45:46 AM 58.2500 -59.4167 221° Southwest 440 506 36,000  Level Gander Center
Sun 11:46:46 AM 58.2000 -59.5667 238° Southwest 440 506 36,000  Level Gander Center
Sun 11:47:46 AM 58.1000 -59.7333 221° Southwest 430 495 36,000  Level Gander Center
Sun 11:48:46 AM 58.0167 -59.9000 227° Southwest 440 506 36,000  Level Gander Center
Sun 11:49:46 AM 57.9167 -60.0333 215° Southwest 440 506 36,000  Level Gander Center
Sun 11:50:46 AM 57.8000 -60.1833 214° Southwest 450 518 36,000  Level Gander Center
Sun 11:51:46 AM 57.7000 -60.3167 215° Southwest 450 518 36,000  Level Gander Center
Sun 11:52:46 AM 57.6000 -60.4500 216° Southwest 450 518 36,000  Level Gander Center
Sun 11:53:46 AM 57.5000 -60.5667 212° Southwest 440 506 36,000  Level Gander Center
Sun 11:54:46 AM 57.3833 -60.6667 205° Southwest 450 518 36,000  Level Gander Center
Sun 11:55:46 AM 57.2667 -60.7833 208° Southwest 450 518 36,000  Level Gander Center
Sun 11:56:46 AM 57.1667 -60.8833 208° Southwest 450 518 36,000  Level Gander Center
Sun 11:57:46 AM 57.0500 -60.9833 205° Southwest 450 518 36,000  Level Gander Center
Sun 11:58:46 AM 56.9167 -61.1000 206° Southwest 440 506 36,000  Level Gander Center
Sun 11:59:46 AM 56.8167 -61.1833 205° Southwest 430 495 36,000  Level Gander Center
Sun 12:00:46 PM 56.7000 -61.2833 205° Southwest 440 506 36,000  Level Gander Center
Sun 12:01:46 PM 56.6000 -61.3667 205° Southwest 450 518 36,000  Level Gander Center
Sun 12:02:46 PM 56.4833 -61.4667 205° Southwest 440 506 36,000  Level Gander Center
Sun 12:03:46 PM 56.3667 -61.5833 209° Southwest 440 506 36,000  Level Gander Center
Sun 12:04:46 PM 56.2667 -61.6667 205° Southwest 440 506 36,000  Level Gander Center
Sun 12:05:46 PM 56.1500 -61.7667 206° Southwest 440 506 36,000  Level Gander Center
Sun 12:06:46 PM 56.0333 -61.8500 202° Southwest 440 506 36,000  Level Gander Center
Sun 12:07:46 PM 55.9167 -61.9667 209° Southwest 450 518 36,000  Level Gander Center
Sun 12:08:46 PM 55.8167 -62.0500 205° Southwest 450 518 36,000  Level Gander Center
Sun 12:09:46 PM 55.7000 -62.1333 202° Southwest 450 518 36,000  Level Gander Center
Sun 12:10:46 PM 55.5833 -62.2333 206° Southwest 450 518 36,000  Level Gander Center
Sun 12:11:46 PM 55.4833 -62.3167 205° Southwest 440 506 36,000  Level Gander Center
Sun 12:12:46 PM 55.3667 -62.4333 210° Southwest 440 506 36,000  Level Gander Center
Sun 12:13:46 PM 55.2667 -62.5167 205° Southwest 440 506 36,000  Level Gander Center
Sun 12:14:46 PM 55.1500 -62.6000 202° Southwest 440 506 36,000  Level Gander Center
Sun 12:15:46 PM 55.0333 -62.6833 202° Southwest 440 506 36,000  Level Gander Center
Sun 12:16:46 PM 54.9167 -62.7667 202° Southwest 440 506 36,000  Level Gander Center
Sun 12:17:46 PM 54.8000 -62.8500 202° Southwest 430 495 36,000  Level Gander Center
Sun 12:18:46 PM 54.7000 -62.9667 214° Southwest 430 495 36,000  Level Gander Center
Sun 12:19:46 PM 54.6000 -63.0167 196° South 420 483 36,000  Level Gander Center
Sun 12:20:46 PM 54.4833 -63.1167 206° Southwest 430 495 36,000  Level Gander Center
Sun 12:21:46 PM 54.3833 -63.2000 206° Southwest 420 483 36,000  Level Gander Center
Sun 12:22:46 PM 54.2833 -63.2833 206° Southwest 430 495 36,000  Level Gander Center
Sun 12:23:46 PM 54.1667 -63.3667 203° Southwest 430 495 36,000  Level Gander Center
Sun 12:24:46 PM 54.0667 -63.4500 206° Southwest 430 495 36,000  Level Gander Center
Sun 12:25:46 PM 53.9500 -63.5333 203° Southwest 430 495 36,000  Level Gander Center
Sun 12:26:46 PM 53.8500 -63.6000 201° Southwest 430 495 36,000  Level Gander Center
Sun 12:27:46 PM 53.7167 -63.6833 200° South 430 495 36,000  Level Gander Center
Sun 12:28:46 PM 53.6167 -63.7667 206° Southwest 430 495 36,000  Level Gander Center
Sun 12:29:46 PM 53.5000 -63.8333 199° South 430 495 36,000  Level Gander Center
Sun 12:30:46 PM 53.4000 -63.9500 215° Southwest 440 506 36,000  Level Gander Center
Sun 12:31:46 PM 53.2833 -64.0167 199° South 430 495 36,000  Level Gander Center
Sun 12:32:46 PM 53.1833 -64.1000 207° Southwest 420 483 36,000  Level Gander Center
Sun 12:33:46 PM 53.0833 -64.1833 207° Southwest 430 495 36,000  Level Gander Center
Sun 12:34:46 PM 52.9500 -64.2500 197° South 420 483 36,000  Level Gander Center
Sun 12:35:46 PM 52.8500 -64.3333 207° Southwest 420 483 36,000  Level Gander Center
Sun 12:36:46 PM 52.7500 -64.4000 202° Southwest 420 483 36,000  Level Gander Center
Sun 12:37:46 PM 52.6333 -64.4833 203° Southwest 420 483 36,000  Level Gander Center
Sun 12:38:46 PM 52.5333 -64.5500 202° Southwest 420 483 36,000  Level Gander Center
Sun 12:39:46 PM 52.4333 -64.6333 207° Southwest 410 472 36,000  Level Gander Center
Sun 12:40:46 PM 52.3333 -64.7000 202° Southwest 420 483 36,000  Level Gander Center
Sun 12:41:46 PM 52.2000 -64.7833 201° Southwest 420 483 36,000  Level Gander Center
Sun 12:42:46 PM 52.1000 -64.8500 202° Southwest 410 472 36,000  Level Gander Center
Sun 12:43:23 PM 52.0333 -64.8833 197° South 410 472 36,000  Level Moncton Center
Sun 12:44:23 PM 51.9333 -64.9667 207° Southwest 410 472 36,000  Level Moncton Center
Sun 12:45:23 PM 51.8333 -65.0500 207° Southwest 410 472 36,000  Level Moncton Center
Sun 12:46:23 PM 51.7333 -65.1000 197° South 410 472 36,000  Level Moncton Center
Sun 12:47:23 PM 51.6333 -65.1833 207° Southwest 400 460 36,000  Level Moncton Center
Sun 12:48:23 PM 51.5167 -65.2500 200° South 390 449 36,000  Level Moncton Center
Sun 12:49:23 PM 51.4333 -65.3167 207° Southwest 390 449 36,000  Level Moncton Center
Sun 12:50:23 PM 51.3167 -65.3833 200° South 390 449 36,000  Level Moncton Center
Sun 12:51:23 PM 51.2333 -65.4333 201° Southwest 390 449 36,000  Level Moncton Center
Sun 12:52:23 PM 51.1333 -65.5167 208° Southwest 390 449 36,000  Level Moncton Center
Sun 12:53:23 PM 51.0333 -65.5667 197° South 390 449 36,000  Level Moncton Center
Sun 12:54:23 PM 50.9167 -65.6500 204° Southwest 390 449 36,000  Level Moncton Center
Sun 12:55:23 PM 50.8167 -65.7000 198° South 390 449 36,000  Level Moncton Center
Sun 12:56:23 PM 50.7167 -65.7667 203° Southwest 390 449 36,000  Level Moncton Center
Sun 12:57:23 PM 50.6167 -65.8167 198° South 390 449 36,000  Level Moncton Center
Sun 12:58:23 PM 50.5167 -65.9000 208° Southwest 380 437 36,000  Level Moncton Center
Sun 12:59:23 PM 50.4167 -65.9500 198° South 390 449 36,000  Level Moncton Center
Sun 01:00:23 PM 50.3167 -66.0167 203° Southwest 390 449 36,000  Level Moncton Center
Sun 01:01:23 PM 50.2167 -66.0667 198° South 390 449 36,000  Level Moncton Center
Sun 01:02:23 PM 50.1167 -66.1500 208° Southwest 390 449 36,000  Level Moncton Center
Sun 01:03:23 PM 50.0167 -66.2167 203° Southwest 390 449 36,000  Level Moncton Center
Sun 01:04:23 PM 49.9167 -66.2667 198° South 390 449 36,000  Level Moncton Center
Sun 01:05:23 PM 49.8167 -66.3500 208° Southwest 390 449 36,000  Level Moncton Center
Sun 01:06:23 PM 49.7167 -66.3833 192° South 390 449 36,000  Level Moncton Center
Sun 01:07:23 PM 49.6000 -66.4667 205° Southwest 380 437 36,000  Level Moncton Center
Sun 01:08:23 PM 49.5167 -66.5167 201° Southwest 380 437 36,000  Level Moncton Center
Sun 01:09:23 PM 49.4167 -66.5833 203° Southwest 370 426 36,000  Level Moncton Center
Sun 01:10:23 PM 49.3167 -66.6333 198° South 370 426 36,000  Level Moncton Center
Sun 01:11:23 PM 49.2333 -66.6833 201° Southwest 370 426 36,000  Level Moncton Center
Sun 01:12:23 PM 49.1333 -66.7500 204° Southwest 370 426 36,000  Level Moncton Center
Sun 01:13:23 PM 49.0333 -66.8000 198° South 370 426 36,000  Level Moncton Center
Sun 01:14:23 PM 48.9333 -66.8667 204° Southwest 370 426 36,000  Level Moncton Center
Sun 01:15:23 PM 48.8500 -66.9167 202° Southwest 370 426 36,000  Level Moncton Center
Sun 01:16:23 PM 48.7500 -66.9833 204° Southwest 370 426 36,000  Level Moncton Center
Sun 01:17:23 PM 48.6333 -67.0333 196° South 370 426 36,000  Level Moncton Center
Sun 01:18:23 PM 48.5500 -67.0833 202° Southwest 370 426 36,000  Level Moncton Center
Sun 01:19:23 PM 48.4500 -67.1500 204° Southwest 370 426 36,000  Level Moncton Center
Sun 01:20:23 PM 48.3500 -67.2000 198° South 370 426 36,000  Level Moncton Center
Sun 01:21:23 PM 48.2500 -67.2667 204° Southwest 370 426 36,000  Level Moncton Center
Sun 01:22:23 PM 48.1667 -67.3167 202° Southwest 370 426 36,000  Level Moncton Center
Sun 01:23:23 PM 48.0667 -67.3833 204° Southwest 370 426 36,000  Level Moncton Center
Sun 01:24:23 PM 47.9667 -67.4167 193° South 370 426 36,000  Level Moncton Center
Sun 01:30:21 PM 47.4521 -67.7192 193° South 381 438 36,000  Level FlightAware ADS-B
Sun 01:31:02 PM 47.3354 -67.7729 197° South 380 437 36,000  Level FlightAware ADS-B
Sun 01:32:25 PM 47.2498 -67.8130 198° South 385 443 36,000  Level FlightAware ADS-B
Sun 01:35:05 PM 46.9073 -67.9721 198° South 383 441 36,000  Level FlightAware ADS-B
Sun 01:36:03 PM 46.8763 -67.9864 198° South 382 440 36,000  Level FlightAware ADS-B
Sun 01:36:40 PM 46.7473 -68.0457 197° South 381 438 36,000  Level FlightAware ADS-B
Sun 01:37:41 PM 46.6499 -68.0904 197° South 383 441 36,000  Level FlightAware ADS-B
Sun 01:38:21 PM 46.5824 -68.1212 197° South 385 443 36,000  Level FlightAware ADS-B
Sun 01:39:00 PM 46.5118 -68.1533 197° South 385 443 36,000  Level FlightAware ADS-B
Sun 01:39:43 PM 46.4374 -68.1870 197° South 384 442 36,000  Level FlightAware ADS-B
Sun 01:40:16 PM 46.3872 -68.2098 197° South 383 441 36,000  Level FlightAware ADS-B
Sun 01:40:48 PM 46.3350 -68.2333 197° South 382 440 36,000  Level FlightAware ADS-B
Sun 01:41:28 PM 46.2607 -68.2669 197° South 385 443 36,000  Level FlightAware ADS-B
Sun 01:41:58 PM 46.2107 -68.2894 197° South 387 445 36,000  Level FlightAware ADS-B
Sun 01:42:48 PM 46.1266 -68.3272 197° South 388 447 36,000  Level FlightAware ADS-B
Sun 01:43:18 PM 46.0737 -68.3509 197° South 388 447 36,000  Level FlightAware ADS-B
Sun 01:44:05 PM 45.9986 -68.3844 197° South 388 447 36,000  Level FlightAware ADS-B
Sun 01:44:45 PM 45.9261 -68.4167 197° South 387 445 36,000  Level FlightAware ADS-B
Sun 01:45:25 PM 45.8738 -68.4399 197° South 385 443 36,000  Level FlightAware ADS-B
Sun 01:45:55 PM 45.8056 -68.4701 197° South 385 443 36,000  Level FlightAware ADS-B
Sun 01:46:44 PM 45.7257 -68.5053 197° South 386 444 36,000  Level FlightAware ADS-B
Sun 01:47:22 PM 45.6569 -68.5357 197° South 386 444 36,000  Level FlightAware ADS-B
Sun 01:48:05 PM 45.5866 -68.5749 201° Southwest 367 422 36,000  Level FlightAware ADS-B
Sun 01:48:54 PM 45.5197 -68.6394 214° Southwest 369 425 36,000  Level FlightAware ADS-B
Sun 01:49:24 PM 45.4758 -68.6808 213° Southwest 370 426 36,000  Level FlightAware ADS-B
Sun 01:50:02 PM 45.4270 -68.7269 214° Southwest 371 427 36,000  Level FlightAware ADS-B
Sun 01:50:42 PM 45.3664 -68.7843 214° Southwest 373 429 36,000  Level FlightAware ADS-B
Sun 01:51:27 PM 45.3132 -68.8345 214° Southwest 372 428 36,000  Level FlightAware ADS-B
Sun 01:51:58 PM 45.2633 -68.8813 213° Southwest 372 428 36,000  Level FlightAware ADS-B
Sun 01:52:43 PM 45.1937 -68.9466 213° Southwest 374 430 36,000  Level FlightAware ADS-B
Sun 01:53:27 PM 45.1347 -69.0018 213° Southwest 374 430 36,000  Level FlightAware ADS-B
Sun 01:53:57 PM 45.0846 -69.0487 213° Southwest 374 430 36,000  Level FlightAware ADS-B (EHTW / ENS)
Sun 01:54:27 PM 45.0486 -69.0822 213° Southwest 374 430 36,000  Level FlightAware ADS-B
Sun 01:55:08 PM 44.9987 -69.1285 213° Southwest 373 429 36,000  Level FlightAware ADS-B
Sun 01:55:47 PM 44.9250 -69.1970 213° Southwest 373 429 36,000  Level FlightAware ADS-B
Sun 01:56:22 PM 44.8921 -69.2273 213° Southwest 371 427 36,000  Level FlightAware ADS-B
Sun 01:57:06 PM 44.8312 -69.2833 213° Southwest 371 427 36,000  Level FlightAware ADS-B
Sun 01:57:37 PM 44.7677 -69.3416 213° Southwest 369 425 36,000  Level FlightAware ADS-B (EHTW / ENS)
Sun 01:58:11 PM 44.7193 -69.3860 213° Southwest 370 426 36,000  Level FlightAware ADS-B (EHTW / ENS)
Sun 01:58:43 PM 44.6732 -69.4284 213° Southwest 370 426 36,000  Level FlightAware ADS-B
Sun 01:59:26 PM 44.6160 -69.4807 213° Southwest 371 427 36,000  Level FlightAware ADS-B
Sun 01:59:57 PM 44.5789 -69.5145 213° Southwest 372 428 36,000  Level FlightAware ADS-B
Sun 02:00:32 PM 44.5171 -69.5708 213° Southwest 375 432 36,000  Level FlightAware ADS-B
Sun 02:01:19 PM 44.4565 -69.6257 213° Southwest 375 432 36,000  Level FlightAware ADS-B
Sun 02:02:19 PM 44.3690 -69.7046 213° Southwest 376 433 36,000  Level FlightAware ADS-B
Sun 02:02:58 PM 44.3097 -69.7584 213° Southwest 377 434 36,000  Level FlightAware ADS-B (EHTW / ENS)
Sun 02:03:28 PM 44.2714 -69.7929 213° Southwest 375 432 36,000  Level FlightAware ADS-B
Sun 02:03:38 PM 44.2447 -69.8169 213° Southwest 368 423 36,000  Level FlightAware ADS-B
Sun 02:04:08 PM 44.2096 -69.8483 213° Southwest 375 432 36,000  Level FlightAware ADS-B
Sun 02:04:47 PM 44.1497 -69.9019 213° Southwest 373 429 36,000  Level FlightAware ADS-B
Sun 02:05:56 PM 44.0453 -69.9951 213° Southwest 368 423 36,000  Level FlightAware ADS-B
Sun 02:06:36 PM 43.9921 -70.0425 213° Southwest 376 433 36,000  Level FlightAware ADS-B
Sun 02:07:14 PM 43.9305 -70.0972 213° Southwest 371 427 36,000  Level FlightAware ADS-B
Sun 02:09:02 PM 43.7716 -70.2378 213° Southwest 371 427 36,000  Level FlightAware ADS-B
Sun 02:09:42 PM 43.7135 -70.2889 212° Southwest 371 427 36,000  Level FlightAware ADS-B
Sun 02:10:30 PM 43.6426 -70.3512 212° Southwest 378 435 36,000  Level FlightAware ADS-B
Sun 02:11:13 PM 43.5785 -70.4073 212° Southwest 370 426 36,000  Level FlightAware ADS-B
Sun 02:11:57 PM 43.5146 -70.4630 212° Southwest 378 435 36,000  Level FlightAware ADS-B
Sun 02:12:40 PM 43.4507 -70.5188 212° Southwest 379 436 36,000  Level FlightAware ADS-B
Sun 02:13:20 PM 43.3920 -70.5697 212° Southwest 379 436 36,000  Level FlightAware ADS-B
Sun 02:13:50 PM 43.3475 -70.6083 212° Southwest 378 435 36,000  Level FlightAware ADS-B
Sun 02:14:26 PM 43.2948 -70.6539 212° Southwest 380 437 36,000  Level FlightAware ADS-B
Sun 02:15:13 PM 43.2248 -70.7144 212° Southwest 381 438 36,000  Level FlightAware ADS-B
Sun 02:15:49 PM 43.1709 -70.7609 212° Southwest 381 438 36,000  Level FlightAware ADS-B
Sun 02:16:27 PM 43.1138 -70.8100 212° Southwest 382 440 36,000  Level FlightAware ADS-B
Sun 02:17:27 PM 43.0243 -70.8867 212° Southwest 385 443 36,000  Level FlightAware ADS-B
Sun 02:18:49 PM 42.9019 -70.9911 212° Southwest 379 436 36,000  Level FlightAware ADS-B
Sun 02:20:16 PM 42.7696 -71.1034 212° Southwest 379 436 36,000  Level FlightAware ADS-B
Sun 02:21:03 PM 42.6980 -71.1639 212° Southwest 380 437 36,000  Level FlightAware ADS-B
Sun 02:21:47 PM 42.6319 -71.2197 212° Southwest 381 438 36,000  Level FlightAware ADS-B
Sun 02:22:22 PM 42.5794 -71.2640 212° Southwest 380 437 36,000  Level FlightAware ADS-B
Sun 02:23:08 PM 42.5082 -71.3238 212° Southwest 381 438 36,000  Level FlightAware ADS-B
Sun 02:23:48 PM 42.4472 -71.3749 212° Southwest 382 440 36,000  Level FlightAware ADS-B
Sun 02:24:28 PM 42.3859 -71.4261 212° Southwest 382 440 36,000  Level FlightAware ADS-B
Sun 02:25:18 PM 42.3144 -71.4978 217° Southwest 385 443 36,000  Level FlightAware ADS-B
Sun 02:25:58 PM 42.2587 -71.5553 217° Southwest 384 442 36,000  Level FlightAware ADS-B
Sun 02:26:28 PM 42.2152 -71.5989 217° Southwest 384 442 36,000  Level FlightAware ADS-B
Sun 02:27:08 PM 42.1587 -71.6555 217° Southwest 385 443 36,000  Level FlightAware ADS-B
Sun 02:27:42 PM 42.1097 -71.7044 217° Southwest 385 443 36,000  Level FlightAware ADS-B (KSNC)
Sun 02:28:16 PM 42.0618 -71.7521 216° Southwest 385 443 36,000  Level FlightAware ADS-B
Sun 02:28:58 PM 42.0013 -71.8122 216° Southwest 386 444 36,000  Level FlightAware ADS-B
Sun 02:29:28 PM 41.9998 -71.8136 215° Southwest 385 443 36,000  Level FlightAware ADS-B (KOWD)
Sun 02:30:18 PM 41.8870 -71.9253 216° Southwest 385 443 36,000  Level FlightAware ADS-B
Sun 02:30:51 PM 41.8406 -71.9711 216° Southwest 385 443 36,000  Level FlightAware ADS-B (KSNC)
Sun 02:31:25 PM 41.7914 -72.0196 216° Southwest 385 443 36,000  Level FlightAware ADS-B
Sun 02:32:04 PM 41.7348 -72.0753 216° Southwest 385 443 36,000  Level FlightAware ADS-B (KSNC)
Sun 02:32:44 PM 41.6785 -72.1309 216° Southwest 385 443 36,000  Level FlightAware ADS-B (KSNC)
Sun 02:33:18 PM 41.6286 -72.1799 216° Southwest 386 444 36,000  Level FlightAware ADS-B (KSNC)
Sun 02:34:07 PM 41.5581 -72.2491 216° Southwest 386 444 36,000  Level FlightAware ADS-B (KSNC)
Sun 02:34:28 PM 41.5290 -72.2776 216° Southwest 380 437 36,000  Level FlightAware ADS-B
Sun 02:34:58 PM 41.4869 -72.3187 216° Southwest 386 444 36,000  Level FlightAware ADS-B (KBKF)
Sun 02:35:46 PM 41.4172 -72.3867 216° Southwest 386 444 36,000  Level FlightAware ADS-B (KSNC)
Sun 02:36:28 PM 41.3605 -72.4418 216° Southwest 388 447 36,000  Level FlightAware ADS-B (KSNC)
Sun 02:37:00 PM 41.3115 -72.4894 216° Southwest 387 445 36,000  Level FlightAware ADS-B (KSNC)
Sun 02:37:34 PM 41.2591 -72.5402 216° Southwest 386 444 36,000  Level FlightAware ADS-B (KSNC)
Sun 02:38:15 PM 41.1997 -72.5977 216° Southwest 386 444 36,000  Level FlightAware ADS-B (KSNC)
Sun 02:38:47 PM 41.1613 -72.6348 216° Southwest 386 444 36,000  Level FlightAware ADS-B (KSNC)
Sun 02:39:59 PM 41.0686 -72.7240 216° Southwest 384 442 36,000  Level FlightAware ADS-B (KSNC)
Sun 02:40:52 PM 40.9872 -72.8022 216° Southwest 385 443 36,000  Level FlightAware ADS-B (KSNC)
Sun 02:41:30 PM 40.9196 -72.8668 216° Southwest 384 442 36,000  Level FlightAware ADS-B (KSNC)
Sun 02:41:53 PM 40.8866 -72.8983 216° Southwest 384 442 36,000  Level FlightAware ADS-B (KSNC)
Sun 02:42:45 PM 40.8123 -72.9691 216° Southwest 384 442 36,000  Level FlightAware ADS-B (KSNC)
Sun 02:43:31 PM 40.7461 -73.0321 216° Southwest 385 443 36,000  Level FlightAware ADS-B (KSNC)
Sun 02:43:41 PM 40.7310 -73.0464 216° Southwest 378 435 36,000  Level FlightAware ADS-B (KWWD)
Sun 02:44:12 PM 40.6861 -73.0891 216° Southwest 385 443 36,000  Level FlightAware ADS-B (KSNC)
Sun 02:44:43 PM 40.6411 -73.1316 216° Southwest 379 436 36,000  Level FlightAware ADS-B (KWWD)
Sun 02:45:22 PM 40.5880 -73.1817 216° Southwest 382 440 36,000  Level FlightAware ADS-B (KSNC)
Sun 02:45:53 PM 40.5413 -73.2257 216° Southwest 381 438 36,000  Level FlightAware ADS-B (KWWD)
Sun 02:46:38 PM 40.4793 -73.2839 216° Southwest 379 436 36,000  Level FlightAware ADS-B (KWWD)
Sun 02:47:13 PM 40.4269 -73.3332 216° Southwest 378 435 36,000  Level FlightAware ADS-B (KSNC)
Sun 02:47:48 PM 40.3788 -73.3784 216° Southwest 378 435 36,000  Level FlightAware ADS-B (KWWD)
Sun 02:48:29 PM 40.3198 -73.4336 216° Southwest 381 438 36,000  Level FlightAware ADS-B (KWWD)
Sun 02:49:17 PM 40.2502 -73.4984 215° Southwest 376 433 36,000  Level FlightAware ADS-B (KWWD)
Sun 02:49:47 PM 40.2071 -73.5386 215° Southwest 384 442 36,000  Level FlightAware ADS-B (KSNC)
Sun 02:50:27 PM 40.1497 -73.5919 215° Southwest 384 442 36,000  Level FlightAware ADS-B (KSNC)
Sun 02:51:03 PM 40.0966 -73.6412 215° Southwest 378 435 36,000  Level FlightAware ADS-B (KWWD)
Sun 02:51:48 PM 40.0322 -73.7008 215° Southwest 383 441 36,000  Level FlightAware ADS-B
Sun 02:52:26 PM 39.9771 -73.7517 215° Southwest 376 433 36,000  Level FlightAware ADS-B (KWWD)
Sun 02:53:09 PM 39.9154 -73.8085 215° Southwest 377 434 36,000  Level FlightAware ADS-B (KWWD)
Sun 02:53:49 PM 39.8580 -73.8613 215° Southwest 385 443 36,000  Level FlightAware ADS-B
Sun 02:54:29 PM 39.7984 -73.9160 215° Southwest 379 436 36,000  Level FlightAware ADS-B (KWWD)
Sun 02:54:50 PM 39.7695 -73.9425 215° Southwest 380 437 36,000  Level FlightAware ADS-B (KWWD)
Sun 02:55:38 PM 39.6977 -74.0081 215° Southwest 382 440 36,000  Level FlightAware ADS-B (KWWD)
Sun 02:56:16 PM 39.6430 -74.0580 215° Southwest 389 448 36,000  Level FlightAware ADS-B
Sun 02:56:49 PM 39.5931 -74.1034 215° Southwest 381 438 36,000  Level FlightAware ADS-B (KWWD)
Sun 02:57:29 PM 39.5351 -74.1561 215° Southwest 380 437 36,000  Level FlightAware ADS-B (KWWD)
Sun 02:57:59 PM 39.4912 -74.1959 215° Southwest 378 435 36,000  Level FlightAware ADS-B (KWWD)
Sun 02:58:50 PM 39.4175 -74.2626 215° Southwest 377 434 36,000  Level FlightAware ADS-B (KWWD)
Sun 02:59:47 PM 39.3346 -74.3374 215° Southwest 378 435 36,000  Level FlightAware ADS-B (KWWD)
Sun 03:00:30 PM 39.2714 -74.3943 215° Southwest 380 437 36,000  Level FlightAware ADS-B (KWWD)
Sun 03:01:03 PM 39.2242 -74.4367 215° Southwest 388 447 36,000  Level FlightAware ADS-B
Sun 03:01:26 PM 39.1897 -74.4677 215° Southwest 388 447 36,000  Level FlightAware ADS-B
Sun 03:02:46 PM 39.0715 -74.5735 215° Southwest 380 437 36,000  Level FlightAware ADS-B (KWWD)
Sun 03:03:18 PM 39.0249 -74.6151 215° Southwest 379 436 36,000  Level FlightAware ADS-B (KWWD)
Sun 03:03:59 PM 38.9628 -74.6654 212° Southwest 387 445 36,000  Level FlightAware ADS-B (KWWD)
Sun 03:04:29 PM 38.9161 -74.6989 209° Southwest 387 445 36,000  Level FlightAware ADS-B (KWWD)
Sun 03:05:12 PM 38.8504 -74.7472 210° Southwest 386 444 36,000  Level FlightAware ADS-B
Sun 03:05:52 PM 38.7879 -74.7936 210° Southwest 385 443 36,000  Level FlightAware ADS-B
Sun 03:06:28 PM 38.7325 -74.8347 210° Southwest 387 445 36,000  Level FlightAware ADS-B
Sun 03:07:14 PM 38.6819 -74.8722 210° Southwest 389 448 36,000  Level FlightAware ADS-B
Sun 03:08:04 PM 38.5832 -74.9452 210° Southwest 391 450 36,000  Level FlightAware ADS-B (KWWD)
Sun 03:08:48 PM 38.5142 -74.9961 210° Southwest 391 450 36,000  Level FlightAware ADS-B (KWWD)
Sun 03:09:30 PM 38.4492 -75.0440 210° Southwest 390 449 36,000  Level FlightAware ADS-B (KWWD)
Sun 03:10:16 PM 38.3763 -75.0975 210° Southwest 389 448 36,000  Level FlightAware ADS-B (KWWD)
Sun 03:10:47 PM 38.3293 -75.1319 210° Southwest 390 449 36,000  Level FlightAware ADS-B (KWWD)
Sun 03:11:40 PM 38.2456 -75.1932 210° Southwest 390 449 36,000  Level FlightAware ADS-B (KWWD)
Sun 03:12:10 PM 38.1985 -75.2275 210° Southwest 390 449 36,000  Level FlightAware ADS-B (KWWD)
Sun 03:13:01 PM 38.1212 -75.2838 210° Southwest 389 448 36,000  Level FlightAware ADS-B (KWWD)
Sun 03:13:41 PM 38.0569 -75.3305 210° Southwest 386 444 36,000  Level FlightAware ADS-B (KWWD)
Sun 03:14:21 PM 37.9968 -75.3740 210° Southwest 378 435 36,000  Level FlightAware ADS-B (KWWD)
Sun 03:15:01 PM 37.9337 -75.4197 210° Southwest 387 445 36,000  Level FlightAware ADS-B (KWWD)
Sun 03:15:41 PM 37.8708 -75.4651 210° Southwest 389 448 36,000  Level FlightAware ADS-B (KWWD)
Sun 03:16:29 PM 37.7954 -75.5195 210° Southwest 390 449 36,000  Level FlightAware ADS-B (KWWD)
Sun 03:17:00 PM 37.7480 -75.5536 210° Southwest 390 449 36,000  Level FlightAware ADS-B (KWWD)
Sun 03:17:40 PM 37.6849 -75.5989 210° Southwest 388 447 36,000  Level FlightAware ADS-B (KWWD)
Sun 03:18:32 PM 37.6036 -75.6571 210° Southwest 386 444 36,000  Level FlightAware ADS-B (KWWD)
Sun 03:19:10 PM 37.5442 -75.6997 210° Southwest 377 434 36,000  Level FlightAware ADS-B (KWWD)
Sun 03:20:00 PM 37.4682 -75.7540 210° Southwest 387 445 36,000  Level FlightAware ADS-B (KWWD)
Sun 03:20:49 PM 37.3909 -75.8090 210° Southwest 387 445 36,000  Level FlightAware ADS-B (KWWD)
Sun 03:21:19 PM 37.3439 -75.8424 209° Southwest 388 447 36,000  Level FlightAware ADS-B (KWWD)
Sun 03:21:59 PM 37.2824 -75.8859 209° Southwest 388 447 36,000  Level FlightAware ADS-B (KWWD)
Sun 03:22:44 PM 37.2111 -75.9363 209° Southwest 388 447 36,000  Level FlightAware ADS-B (KWWD)
Sun 03:23:21 PM 37.1533 -75.9771 209° Southwest 388 447 36,000  Level FlightAware ADS-B (KWWD)
Sun 03:23:56 PM 37.0984 -76.0158 209° Southwest 387 445 36,000  Level FlightAware ADS-B (KWWD)
Sun 03:25:02 PM 36.9977 -76.0866 209° Southwest 387 445 36,000  Level FlightAware ADS-B (KWWD)
Sun 03:26:26 PM 36.8653 -76.1794 209° Southwest 388 447 36,000  Level FlightAware ADS-B (KWWD)
Sun 03:26:57 PM 36.8163 -76.2137 209° Southwest 388 447 36,000  Level FlightAware ADS-B (KWWD)
Sun 03:28:04 PM 36.7175 -76.2811 209° Southwest 397 457 36,000  Level Washington Center
Sun 03:29:05 PM 36.6231 -76.3503 210° Southwest 397 457 36,000  Level Washington Center
Sun 03:30:03 PM 36.5289 -76.4164 209° Southwest 397 457 36,000  Level Washington Center
Sun 03:31:04 PM 36.4322 -76.4800 208° Southwest 397 457 36,000  Level Washington Center
Sun 03:32:05 PM 36.3358 -76.5461 209° Southwest 397 457 36,000  Level Washington Center
Sun 03:33:03 PM 36.2414 -76.6119 209° Southwest 397 457 36,000  Level Washington Center
Sun 03:39:10 PM 35.6547 -77.0111 209° Southwest 395 455 36,000  Level FlightAware ADS-B
Sun 03:39:48 PM 35.5941 -77.0520 209° Southwest 396 456 36,000  Level FlightAware ADS-B
Sun 03:40:40 PM 35.5122 -77.1071 209° Southwest 396 456 36,000  Level FlightAware ADS-B
Sun 03:41:40 PM 35.4133 -77.1735 209° Southwest 396 456 36,000  Level FlightAware ADS-B
Sun 03:42:10 PM 35.3660 -77.2051 209° Southwest 396 456 36,000  Level FlightAware ADS-B
Sun 03:42:50 PM 35.3025 -77.2476 209° Southwest 398 458 36,000  Level FlightAware ADS-B
Sun 03:43:30 PM 35.2380 -77.2907 209° Southwest 399 459 36,000  Level FlightAware ADS-B
Sun 03:44:08 PM 35.1746 -77.3329 209° Southwest 400 460 36,000  Level FlightAware ADS-B
Sun 03:45:00 PM 35.0923 -77.3876 209° Southwest 402 463 36,000  Level FlightAware ADS-B
Sun 03:45:34 PM 35.0356 -77.4252 209° Southwest 401 461 36,000  Level FlightAware ADS-B
Sun 03:46:18 PM 34.9659 -77.4714 208° Southwest 402 463 36,000  Level FlightAware ADS-B
Sun 03:47:00 PM 34.8937 -77.5191 208° Southwest 404 465 36,000  Level FlightAware ADS-B
Sun 03:47:30 PM 34.8456 -77.5509 208° Southwest 405 466 36,000  Level FlightAware ADS-B
Sun 03:48:00 PM 34.7977 -77.5825 208° Southwest 406 467 36,000  Level FlightAware ADS-B
Sun 03:48:50 PM 34.7115 -77.6391 208° Southwest 407 468 36,000  Level FlightAware ADS-B
Sun 03:49:20 PM 34.6647 -77.6699 208° Southwest 406 467 36,000  Level FlightAware ADS-B
Sun 03:50:00 PM 34.5963 -77.7147 208° Southwest 406 467 36,000  Level FlightAware ADS-B
Sun 03:50:30 PM 34.5470 -77.7469 208° Southwest 404 465 36,000  Level FlightAware ADS-B
Sun 03:51:10 PM 34.4821 -77.7894 208° Southwest 404 465 36,000  Level FlightAware ADS-B
Sun 03:51:50 PM 34.4153 -77.8330 208° Southwest 404 465 36,000  Level FlightAware ADS-B
Sun 03:52:30 PM 34.3490 -77.8699 205° Southwest 414 476 36,000  Level FlightAware ADS-B
Sun 03:53:00 PM 34.2919 -77.8924 198° South 415 478 36,000  Level FlightAware ADS-B
Sun 03:53:30 PM 34.2430 -77.9272 210° Southwest 403 464 36,000  Level FlightAware ADS-B
Sun 03:54:10 PM 34.1834 -77.9779 215° Southwest 404 465 36,000  Level FlightAware ADS-B
Sun 03:55:00 PM 34.1063 -78.0436 215° Southwest 404 465 36,000  Level FlightAware ADS-B
Sun 03:55:38 PM 34.0484 -78.0931 215° Southwest 404 465 36,000  Level FlightAware ADS-B
Sun 03:56:18 PM 33.9878 -78.1455 216° Southwest 404 465 36,000  Level FlightAware ADS-B
Sun 03:56:50 PM 33.9391 -78.1864 215° Southwest 408 470 36,000  Level FlightAware ADS-B
Sun 03:57:20 PM 33.8830 -78.2091 199° South 428 493 36,000  Level FlightAware ADS-B
Sun 03:58:00 PM 33.8060 -78.2266 191° South 426 490 36,000  Level FlightAware ADS-B
Sun 03:58:38 PM 33.7326 -78.2442 191° South 426 490 36,000  Level FlightAware ADS-B
Sun 03:59:20 PM 33.6537 -78.2628 191° South 427 491 36,000  Level FlightAware ADS-B
Sun 04:00:00 PM 33.5763 -78.2810 191° South 427 491 36,000  Level FlightAware ADS-B
Sun 04:00:36 PM 33.5044 -78.2994 191° South 431 496 36,000  Level Jacksonville Center
Sun 04:01:36 PM 33.3886 -78.3256 191° South 431 496 36,000  Level Jacksonville Center
Sun 04:02:36 PM 33.2728 -78.3536 191° South 431 496 36,000  Level Jacksonville Center
Sun 04:03:36 PM 33.1547 -78.3797 190° South 431 496 36,000  Level Jacksonville Center
Sun 04:04:36 PM 33.0367 -78.4053 190° South 431 496 36,000  Level Jacksonville Center
Sun 04:05:36 PM 32.9167 -78.4336 191° South 431 496 36,000  Level Jacksonville Center
Sun 04:06:36 PM 32.7967 -78.4619 191° South 431 496 36,000  Level Jacksonville Center
Sun 04:07:36 PM 32.6786 -78.4872 190° South 431 496 36,000  Level Jacksonville Center
Sun 04:08:36 PM 32.5586 -78.5178 192° South 436 502 36,000  Level Jacksonville Center
Sun 04:09:36 PM 32.4508 -78.5403 190° South 441 507 36,000  Level Jacksonville Center
Sun 04:10:36 PM 32.3267 -78.5708 192° South 448 516 36,000  Level Jacksonville Center
Sun 04:11:36 PM 32.2044 -78.6011 192° South 448 516 36,000  Level Jacksonville Center
Sun 04:12:36 PM 32.0842 -78.6264 190° South 448 516 36,000  Level Jacksonville Center
Sun 04:13:36 PM 31.9622 -78.6564 192° South 448 516 36,000  Level Jacksonville Center
Sun 04:14:36 PM 31.8442 -78.6911 194° South 448 516 36,000  Level Jacksonville Center
Sun 04:15:36 PM 31.7247 -78.7356 198° South 443 510 36,000  Level Jacksonville Center
Sun 04:16:36 PM 31.6111 -78.7750 196° South 449 517 36,000  Level Jacksonville Center
Sun 04:17:36 PM 31.4875 -78.8219 198° South 449 517 36,000  Level Jacksonville Center
Sun 04:18:36 PM 31.3678 -78.8658 197° South 454 522 36,000  Level Jacksonville Center
Sun 04:19:36 PM 31.2478 -78.9050 196° South 454 522 36,000  Level Jacksonville Center
Sun 04:20:36 PM 31.1283 -78.9514 198° South 454 522 36,000  Level Jacksonville Center
Sun 04:21:36 PM 31.0083 -78.9928 196° South 454 522 36,000  Level Jacksonville Center
Sun 04:22:36 PM 30.8886 -79.0364 197° South 454 522 36,000  Level Jacksonville Center
Sun 04:24:47 PM 30.6144 -79.1350 197° South 451 519 36,000  Level Miami Center
Sun 04:25:47 PM 30.4908 -79.1756 196° South 458 527 36,000  Level Miami Center
Sun 04:26:47 PM 30.3650 -79.2186 196° South 464 534 36,000  Level Miami Center
Sun 04:27:47 PM 30.2475 -79.2617 198° South 464 534 36,000  Level Miami Center
Sun 04:28:47 PM 30.1175 -79.3042 196° South 464 534 36,000  Level Miami Center
Sun 04:29:47 PM 29.9958 -79.3494 198° South 464 534 36,000  Level Miami Center
Sun 04:30:47 PM 29.8742 -79.3897 196° South 459 528 36,000  Level Miami Center
Sun 04:31:47 PM 29.7483 -79.4344 197° South 466 536 36,000  Level Miami Center
Sun 04:32:47 PM 29.6306 -79.4864 201° Southwest 466 536 36,000  Level Miami Center
Sun 04:33:47 PM 29.5069 -79.5242 195° South 466 536 36,000  Level Miami Center
Sun 04:34:47 PM 29.3872 -79.5689 198° South 466 536 36,000  Level Miami Center
Sun 04:40:29 PM 28.6760 -79.8013 198° South 468 539 36,000  Level FlightAware ADS-B
Sun 04:41:06 PM 28.6083 -79.8242 197° South 467 537 36,000  Level FlightAware ADS-B
Sun 04:41:50 PM 28.5024 -79.8600 197° South 468 539 36,000  Level FlightAware ADS-B
Sun 04:42:31 PM 28.4193 -79.8881 197° South 467 537 36,000  Level FlightAware ADS-B
Sun 04:43:01 PM 28.3590 -79.9084 196° South 466 536 36,000  Level FlightAware ADS-B
Sun 04:43:41 PM 28.2733 -79.9372 196° South 467 537 36,000  Level FlightAware ADS-B
Sun 04:44:20 PM 28.1918 -79.9644 196° South 470 541 36,000  Level FlightAware ADS-B
Sun 04:45:00 PM 28.1061 -79.9932 197° South 470 541 36,000  Level FlightAware ADS-B
Sun 04:45:41 PM 28.0210 -80.0218 197° South 471 542 36,000  Level FlightAware ADS-B
Sun 04:46:21 PM 27.9400 -80.0489 196° South 472 543 36,000  Level FlightAware ADS-B
Sun 04:47:01 PM 27.8528 -80.0779 196° South 471 542 36,000  Level FlightAware ADS-B
Sun 04:47:51 PM 27.7497 -80.1124 196° South 471 542 36,000  Level FlightAware ADS-B
Sun 04:48:31 PM 27.6659 -80.1402 196° South 471 542 36,000  Level FlightAware ADS-B
Sun 04:49:11 PM 27.5810 -80.1683 196° South 471 542 36,000  Level FlightAware ADS-B
Sun 04:49:50 PM 27.5040 -80.1937 196° South 473 544 36,000  Level FlightAware ADS-B
Sun 04:50:24 PM 27.4278 -80.2189 196° South 472 543 36,000  Level FlightAware ADS-B
Sun 04:51:21 PM 27.3090 -80.2584 196° South 473 544 36,000  Level FlightAware ADS-B
Sun 04:52:00 PM 27.2264 -80.2856 196° South 474 545 36,000  Level FlightAware ADS-B
Sun 04:52:53 PM 27.1238 -80.3191 196° South 474 545 36,000  Level FlightAware ADS-B
Sun 04:53:33 PM 27.0387 -80.3473 196° South 475 547 36,000  Level FlightAware ADS-B
Sun 04:55:01 PM 26.8503 -80.4090 196° South 476 548 36,000  Level FlightAware ADS-B
Sun 04:55:38 PM 26.7680 -80.4360 196° South 478 550 36,000  Level FlightAware ADS-B
Sun 04:57:59 PM 26.4650 -80.5346 196° South 477 549 36,000  Level FlightAware ADS-B
Sun 04:58:40 PM 26.3795 -80.5624 196° South 477 549 36,000  Level FlightAware ADS-B
Sun 04:59:47 PM 26.2433 -80.6067 196° South 479 551 36,000  Level Miami Center
Sun 05:00:47 PM 26.1169 -80.6492 197° South 473 544 36,000  Level Miami Center
Sun 05:01:47 PM 25.9906 -80.6914 197° South 478 550 36,000  Level Miami Center
Sun 05:02:47 PM 25.8619 -80.7333 196° South 484 557 36,000  Level Miami Center
Sun 05:03:47 PM 25.7314 -80.7775 197° South 484 557 36,000 -350 Level Miami Center
Sun 05:04:47 PM 25.6006 -80.8194 196° South 484 557 35,300 -850 Descending Miami Center
Sun 05:05:47 PM 25.4742 -80.8589 196° South 484 557 34,300 -1,200 Descending Miami Center
Sun 05:06:47 PM 25.3436 -80.8983 195° South 484 557 32,900 -1,500 Descending Miami Center
Sun 05:07:47 PM 25.2194 -80.9378 196° South 479 551 31,300 -1,400 Descending Miami Center
Sun 05:08:47 PM 25.1036 -80.9731 195° South 457 526 30,100 -1,100 Descending Miami Center
Sun 05:09:47 PM 24.9875 -81.0103 196° South 444 511 29,100 -950 Descending Miami Center
Sun 05:10:47 PM 24.8758 -81.0456 196° South 434 499 28,200 -950 Descending Miami Center
Sun 05:11:47 PM 24.7664 -81.0806 196° South 422 486 27,200 -1,000 Descending Miami Center
Sun 05:12:47 PM 24.6550 -81.1067 192° South 422 486 26,200 -1,000 Descending Miami Center
Sun 05:13:47 PM 24.5417 -81.1208 186° South 416 479 25,200 -600 Descending Miami Center
Sun 05:14:47 PM 24.4325 -81.1400 189° South 411 473 25,000 -100 Descending Miami Center
Sun 05:15:47 PM 24.3192 -81.1589 189° South 411 473 25,000  Level Miami Center
Sun 05:16:47 PM 24.2100 -81.1803 190° South 411 473 25,000  Level Miami Center
Sun 05:17:47 PM 24.1008 -81.1992 189° South 411 473 25,000 -300 Level Miami Center
Sun 05:18:47 PM 23.9972 -81.2458 202° Southwest 411 473 24,400 -600 Descending Miami Center
Sun 05:20:00 PM 23.8589 -81.2396 196° South  Level FlightAware Approximate
Sun 05:27:00 PM 23.0677 -81.4367 194° South  Level FlightAware Approximate
Sun 05:28:00 PM 23.0032 -81.5174 258° West  Level FlightAware Approximate
Sun 05:29:00 PM 22.9901 -81.6425 264° West  Level FlightAware Approximate
Sun 05:30:00 PM 22.9726 -81.7669 257° West  Level FlightAware Approximate
Sun 05:31:00 PM 22.9463 -81.8896 257° West  Level FlightAware Approximate
Sun 05:32:00 PM 22.9333 -82.0139 270° West  Level FlightAware Approximate
Sun 05:33:00 PM 22.9389 -82.1391 285° West  Level FlightAware Approximate
Sun 05:34:00 PM 22.9592 -82.2624 282° West  Level FlightAware Approximate
Sun 05:35:00 PM 22.9667 -82.3875 270° West  Level FlightAware Approximate
Sun 05:36:00 PM 22.9667 -82.4000 270° West  Level FlightAware Approximate
Sun 05:37:00 PM 22.9891 -82.4091 270° West  Level Estimated
Sun 05:38:00 PM 22.9891 -82.4091 270° West  Level Estimated
Sun 05:39:00 PM 22.9891 -82.4091 270° West  Level Estimated
Sun 05:40:00 PM 22.9891 -82.4091 270° West  Level Estimated
Sun 05:41:00 PM 22.9891 -82.4091 270° West  Level Estimated
Sun 05:42:00 PM 22.9891 -82.4091 270° West  Level Estimated
Sun 05:43:00 PM 22.9891 -82.4091 270° West  Level Estimated
Sun 05:44:00 PM 22.9891 -82.4091 270° West  Level Estimated
Sun 05:45:00 PM 22.9891 -82.4091 270° West  Level Estimated
Sun 05:46:00 PM 22.9891 -82.4091 270° West  Level Estimated
Sun 05:47:00 PM 22.9891 -82.4091 270° West  Level Estimated
Sun 05:48:00 PM 22.9891 -82.4091 270° West  Level Estimated
Sun 05:49:00 PM 22.9891 -82.4091 270° West  Level Estimated
Sun 05:50:00 PM 22.9891 -82.4091 270° West  Level Estimated
Sun 05:51:00 PM 22.9891 -82.4091 270° West  Level Estimated
Sun 05:52:00 PM 22.9891 -82.4091 270° West  Level Estimated
Sun 05:53:00 PM 22.9891 -82.4091 270° West  Level Estimated
Sun 05:54:00 PM 22.9891 -82.4091 270° West  Level Estimated
Sun 05:55:00 PM 22.9891 -82.4091 270° West  Level Estimated
Sun 05:56:00 PM 22.9891 -82.4091 270° West  Level Estimated
Sun 05:57:00 PM 22.9891 -82.4091 270° West  Level Estimated

Login

Don't have an account? Register now (free) for customized features, flight alerts, and more!